CheckWX is a tool to help pilots better visualize weather data.  It is not intended as a substitute for an official pre-flight weather briefing.

12:20:58 UTC

KHVE METAR
Hanksville Airport
Hanksville, Utah, USA
Current

6 mins ago

KHVE 221215Z AUTO 00000KT 1/4SM OVC002 M05/M06 A2976 RMK AO2
Observed
Feb-22 @ 12:15 UTC
Visibility
1/4 SM
Flight Rules
LIFR
Cloud Levels
  • Overcast at 200' AGL
Temperature
-5°C / 23°F
Dewpoint
-6°C / 21°F
Humidity
93%
Altimeter
29.76" Hg
Pressure
1007.82 hPa
Previous

26 mins ago

KHVE 221155Z AUTO 00000KT 1/4SM OVC002 M06/M06 A2975 RMK AO2
Observed
Feb-22 @ 11:55 UTC
Visibility
1/4 SM
Flight Rules
LIFR
Cloud Levels
  • Overcast at 200' AGL
Temperature
-6°C / 21°F
Dewpoint
-6°C / 21°F
Humidity
100%
Altimeter
29.75" Hg
Pressure
1007.42 hPa
Previous

46 mins ago

KHVE 221135Z AUTO 00000KT 1/2SM OVC002 M06/M06 A2974 RMK AO2
Observed
Feb-22 @ 11:35 UTC
Visibility
1/2 SM
Flight Rules
LIFR
Cloud Levels
  • Overcast at 200' AGL
Temperature
-6°C / 21°F
Dewpoint
-6°C / 21°F
Humidity
100%
Altimeter
29.74" Hg
Pressure
1007.12 hPa